Time;durP1;ratioP1;P1;durP2;ratioP2;P2;SDS_P1;SDS_P2;PMS_P1;PMS_P2;Temp;Humidity;BMP_temperature;BMP_pressure;BME280_temperature;BME280_humidity;BME280_pressure;Samples;Min_cycle;Max_cycle;Signal;HPM_P1;HPM_P2
2021/12/28 00:01:30;;;;;;;;;;;;;;;-5.31;72.86;100062.98;1693624;83;20239;-75
2021/12/28 00:03:55;;;;;;;;;;;;;;;-5.28;72.93;100072.34;1686368;83;21095;-76
2021/12/28 00:06:21;;;;;;;;;;;;;;;-5.27;72.58;100067.56;1686853;83;20155;-76
2021/12/28 00:08:47;;;;;;;;;;;;;;;-5.17;72.51;100075.77;1698804;83;20469;-76
2021/12/28 00:11:13;;;;;;;;;;;;;;;-5.13;72.43;100069.16;1690843;83;20192;-78
2021/12/28 00:13:39;;;;;;;;;;;;;;;-5.08;72.32;100069.84;1687726;83;20512;-77
2021/12/28 00:18:35;;;;;;;;;;;;;;;-5.12;71.96;100066.98;1697574;83;20637;-76
2021/12/28 00:21:02;;;;;;;;;;;;;;;-5.18;72.16;100065.92;1699687;83;20192;-78
2021/12/28 00:23:32;;;;;;;;;;;;;;;-5.14;72.17;100058.48;1692194;82;20238;-76
2021/12/28 00:25:57;;;;;;;;;;;;;;;-5.18;72.15;100055.62;1701494;83;20491;-77
2021/12/28 00:28:22;;;;;;;;;;;;;;;-5.26;72.28;100052.52;1699773;83;21131;-76
2021/12/28 00:30:49;;;;;;;;;;;;;;;-5.29;72.39;100054.75;1692900;83;20235;-77
2021/12/28 00:33:15;;;;;;;;;;;;;;;-5.29;72.46;100048.77;1695766;83;20470;-76
2021/12/28 00:35:41;;;;;;;;;;;;;;;-5.29;72.55;100047.48;1695045;83;20266;-76
2021/12/28 00:38:08;;;;;;;;;;;;;;;-5.31;72.64;100051.86;1699950;83;20146;-76
2021/12/28 00:40:35;;;;;;;;;;;;;;;-5.39;72.84;100053.86;1692260;83;21969;-79
2021/12/28 00:43:00;;;;;;;;;;;;;;;-5.43;72.97;100053.98;1698407;83;20436;-77
2021/12/28 00:45:27;;;;;;;;;;;;;;;-5.37;72.87;100049.52;1696628;83;20606;-78
2021/12/28 00:47:52;;;;;;;;;;;;;;;-5.34;72.83;100051.98;1693768;83;20231;-75
2021/12/28 00:50:19;;;;;;;;;;;;;;;-5.39;72.98;100051.29;1709404;83;21036;-78
2021/12/28 00:52:45;;;;;;;;;;;;;;;-5.41;73.05;100052.20;1692007;83;20992;-76
2021/12/28 00:55:12;;;;;;;;;;;;;;;-5.45;73.17;100048.06;1693166;82;20211;-76
2021/12/28 00:57:38;;;;;;;;;;;;;;;-5.40;73.05;100053.03;1689077;83;20180;-78
2021/12/28 01:00:06;;;;;;;;;;;;;;;-5.49;73.23;100046.48;1692779;83;20120;-76
2021/12/28 01:02:32;;;;;;;;;;;;;;;-5.51;73.34;100048.28;1698402;82;20204;-76
2021/12/28 01:04:58;;;;;;;;;;;;;;;-5.62;73.65;100042.70;1693395;83;21016;-75
2021/12/28 01:07:23;;;;;;;;;;;;;;;-5.58;73.57;100046.82;1703170;83;20144;-75
2021/12/28 01:09:49;;;;;;;;;;;;;;;-5.62;73.76;100045.28;1698534;83;20458;-76
2021/12/28 01:12:15;;;;;;;;;;;;;;;-5.67;74.01;100041.59;1691916;82;20193;-76
2021/12/28 01:14:40;;;;;;;;;;;;;;;-5.73;74.07;100042.23;1695580;83;20844;-76
2021/12/28 01:17:06;;;;;;;;;;;;;;;-5.78;74.26;100041.97;1682813;83;21152;-77
2021/12/28 01:19:32;;;;;;;;;;;;;;;-5.70;74.21;100042.12;1674967;85;20319;-76
2021/12/28 01:21:58;;;;;;;;;;;;;;;-5.78;74.25;100038.11;1665816;84;20156;-79
2021/12/28 01:24:24;;;;;;;;;;;;;;;-5.74;74.30;100043.15;1657689;85;20235;-79
2021/12/28 01:26:49;;;;;;;;;;;;;;;-5.74;74.38;100034.14;1654183;85;20716;-80
2021/12/28 01:29:15;;;;;;;;;;;;;;;-5.73;74.26;100031.95;1654143;85;21094;-76
2021/12/28 01:31:41;;;;;;;;;;;;;;;-5.78;74.33;100032.97;1670120;85;21115;-76
2021/12/28 01:34:07;;;;;;;;;;;;;;;-5.74;74.46;100028.55;1672744;85;20150;-75
2021/12/28 01:36:32;;;;;;;;;;;;;;;-5.73;74.40;100030.23;1662379;85;20261;-79
2021/12/28 01:38:58;;;;;;;;;;;;;;;-5.67;74.25;100034.30;1665929;84;21102;-79
2021/12/28 01:41:24;;;;;;;;;;;;;;;-5.70;74.27;100031.83;1663871;85;21279;-77
2021/12/28 01:43:57;;;;;;;;;;;;;;;-5.73;74.44;100033.23;1658345;85;20917;-76
2021/12/28 01:46:23;;;;;;;;;;;;;;;-5.69;74.43;100036.09;1653384;85;21225;-76
2021/12/28 01:48:49;;;;;;;;;;;;;;;-5.69;74.33;100029.66;1665332;85;20123;-78
2021/12/28 01:51:20;;;;;;;;;;;;;;;-5.66;74.26;100024.41;1671132;85;20238;-77
2021/12/28 01:53:47;;;;;;;;;;;;;;;-5.62;74.10;100019.55;1662328;84;21129;-76
2021/12/28 01:56:15;;;;;;;;;;;;;;;-5.66;74.16;100013.66;1663358;84;20237;-77
2021/12/28 01:58:41;;;;;;;;;;;;;;;-5.70;74.22;100011.26;1661677;85;20193;-78
2021/12/28 02:01:07;;;;;;;;;;;;;;;-5.62;74.23;100016.98;1657035;85;20154;-79
2021/12/28 02:03:33;;;;;;;;;;;;;;;-5.72;74.01;99997.62;1660535;85;20327;-79
2021/12/28 02:05:59;;;;;;;;;;;;;;;-5.74;74.36;100017.43;1654298;85;21308;-77
2021/12/28 02:08:25;;;;;;;;;;;;;;;-5.69;74.36;100023.23;1660229;85;20791;-78
2021/12/28 02:10:52;;;;;;;;;;;;;;;-5.72;74.60;100016.91;1680098;85;20135;-76
2021/12/28 02:13:18;;;;;;;;;;;;;;;-5.70;74.50;100018.98;1678798;84;20187;-77
2021/12/28 02:15:43;;;;;;;;;;;;;;;-5.68;74.65;100018.49;1674870;84;20160;-77
2021/12/28 02:18:10;;;;;;;;;;;;;;;-5.61;74.44;100016.06;1687708;83;21148;-78
2021/12/28 02:20:36;;;;;;;;;;;;;;;-5.60;74.40;100012.61;1691490;83;20230;-78
2021/12/28 02:23:02;;;;;;;;;;;;;;;-5.65;74.45;100017.09;1692080;83;20215;-76
2021/12/28 02:25:27;;;;;;;;;;;;;;;-5.57;74.42;100016.35;1697067;83;20148;-77
2021/12/28 02:27:53;;;;;;;;;;;;;;;-5.62;74.42;100016.98;1704003;83;20510;-77
2021/12/28 02:30:19;;;;;;;;;;;;;;;-5.65;74.73;100019.66;1693269;83;21084;-78
2021/12/28 02:32:46;;;;;;;;;;;;;;;-5.63;74.62;100018.70;1702688;83;20333;-77
2021/12/28 02:35:14;;;;;;;;;;;;;;;-5.61;74.38;100016.06;1692359;83;20202;-76
2021/12/28 02:37:39;;;;;;;;;;;;;;;-5.64;74.42;100006.75;1692593;83;20214;-79
2021/12/28 02:40:06;;;;;;;;;;;;;;;-5.63;74.45;100003.72;1698510;83;20180;-79
2021/12/28 02:42:32;;;;;;;;;;;;;;;-5.62;74.27;99992.55;1686034;83;21161;-77
2021/12/28 02:45:09;;;;;;;;;;;;;;;-5.64;74.33;99986.59;1693244;83;20451;-76
2021/12/28 02:47:34;;;;;;;;;;;;;;;-5.67;74.47;99986.71;1696579;83;20124;-77
2021/12/28 02:50:01;;;;;;;;;;;;;;;-5.65;74.53;99982.37;1690418;83;20190;-77
2021/12/28 02:52:27;;;;;;;;;;;;;;;-5.81;74.88;99982.94;1695629;83;20320;-78
2021/12/28 02:54:52;;;;;;;;;;;;;;;-5.79;74.90;99978.56;1693854;83;21079;-77
2021/12/28 02:57:18;;;;;;;;;;;;;;;-5.86;75.10;99979.67;1692956;83;20156;-77
2021/12/28 02:59:48;;;;;;;;;;;;;;;-5.80;75.07;99973.02;1692920;83;20272;-79
2021/12/28 03:02:14;;;;;;;;;;;;;;;-5.85;75.14;99967.22;1696039;82;20148;-77
2021/12/28 03:04:39;;;;;;;;;;;;;;;-5.87;75.32;99974.59;1698559;83;20305;-77
2021/12/28 03:07:05;;;;;;;;;;;;;;;-5.87;75.33;99969.02;1697642;83;21052;-77
2021/12/28 03:09:31;;;;;;;;;;;;;;;-5.89;75.47;99966.93;1687546;83;20188;-78
2021/12/28 03:11:56;;;;;;;;;;;;;;;-5.88;75.48;99967.33;1697759;82;20133;-78
2021/12/28 03:14:22;;;;;;;;;;;;;;;-5.90;75.37;99963.98;1720366;82;20183;-78
2021/12/28 03:16:47;;;;;;;;;;;;;;;-5.94;75.56;99961.13;1717103;82;20144;-78
2021/12/28 03:19:13;;;;;;;;;;;;;;;-5.97;75.64;99958.70;1703456;82;21086;-80
2021/12/28 03:21:40;;;;;;;;;;;;;;;-6.05;75.87;99965.41;1702222;82;20124;-78
2021/12/28 03:24:07;;;;;;;;;;;;;;;-5.94;75.67;99959.84;1706508;82;20224;-78
2021/12/28 03:26:33;;;;;;;;;;;;;;;-6.04;75.84;99961.95;1721726;82;20193;-78
2021/12/28 03:28:58;;;;;;;;;;;;;;;-6.09;75.96;99955.28;1706538;82;20624;-78
2021/12/28 03:31:24;;;;;;;;;;;;;;;-6.10;76.03;99951.06;1716310;82;21086;-78
2021/12/28 03:33:52;;;;;;;;;;;;;;;-6.06;75.95;99953.89;1716257;82;20501;-77
2021/12/28 03:36:18;;;;;;;;;;;;;;;-6.15;76.13;99952.05;1707855;82;20205;-79
2021/12/28 03:38:43;;;;;;;;;;;;;;;-6.20;76.38;99948.82;1715726;82;20232;-77
2021/12/28 03:41:10;;;;;;;;;;;;;;;-6.24;76.61;99947.70;1708718;82;20309;-77
2021/12/28 03:43:37;;;;;;;;;;;;;;;-6.26;76.62;99943.90;1710078;82;21066;-78
2021/12/28 03:46:03;;;;;;;;;;;;;;;-6.20;76.49;99940.25;1704595;82;20220;-78
2021/12/28 03:48:28;;;;;;;;;;;;;;;-6.22;76.58;99943.33;1686970;84;20297;-77
2021/12/28 03:50:54;;;;;;;;;;;;;;;-6.22;76.50;99939.02;1691464;84;20204;-77
2021/12/28 03:53:20;;;;;;;;;;;;;;;-6.29;76.92;99941.44;1693873;84;20780;-78
2021/12/28 03:55:45;;;;;;;;;;;;;;;-6.28;76.86;99943.09;1691963;84;21020;-78
2021/12/28 03:58:11;;;;;;;;;;;;;;;-6.30;76.94;99930.76;1690666;84;20611;-78
2021/12/28 04:00:44;;;;;;;;;;;;;;;-6.39;77.16;99928.52;1686338;84;20163;-77
2021/12/28 04:03:09;;;;;;;;;;;;;;;-6.44;77.39;99932.98;1690178;84;20244;-78
2021/12/28 04:05:35;;;;;;;;;;;;;;;-6.48;77.60;99933.52;1685678;84;20915;-77
2021/12/28 04:08:01;;;;;;;;;;;;;;;-6.53;77.89;99931.11;1687066;84;21496;-77
2021/12/28 04:10:33;;;;;;;;;;;;;;;-6.40;77.61;99935.81;1683157;84;20250;-80
2021/12/28 04:12:57;;;;;;;;;;;;;;;-6.37;77.55;99933.14;1688296;84;20204;-78
2021/12/28 04:15:23;;;;;;;;;;;;;;;-6.57;78.10;99933.84;1692299;84;20182;-77
2021/12/28 04:17:48;;;;;;;;;;;;;;;-6.58;78.19;99932.18;1690712;84;20184;-78
2021/12/28 04:20:16;;;;;;;;;;;;;;;-6.52;78.20;99926.38;1690717;84;21107;-81
2021/12/28 04:22:42;;;;;;;;;;;;;;;-6.46;77.94;99918.05;1687911;84;20232;-76
2021/12/28 04:25:08;;;;;;;;;;;;;;;-6.50;78.03;99912.19;1689452;84;20474;-76
2021/12/28 04:27:34;;;;;;;;;;;;;;;-6.53;78.33;99918.27;1692050;84;20196;-78
2021/12/28 04:29:59;;;;;;;;;;;;;;;-6.54;78.37;99919.18;1688719;84;20317;-78
2021/12/28 04:32:25;;;;;;;;;;;;;;;-6.48;78.33;99918.11;1689731;84;21073;-78
2021/12/28 04:34:51;;;;;;;;;;;;;;;-6.40;78.06;99917.41;1686354;84;20583;-77
2021/12/28 04:37:16;;;;;;;;;;;;;;;-6.47;78.27;99915.94;1692652;84;20212;-78
2021/12/28 04:39:42;;;;;;;;;;;;;;;-6.47;78.28;99915.11;1695111;84;20231;-77
2021/12/28 04:42:08;;;;;;;;;;;;;;;-6.43;78.31;99912.80;1694358;84;20513;-76
2021/12/28 04:44:33;;;;;;;;;;;;;;;-6.46;78.57;99914.20;1694659;84;21080;-77
2021/12/28 04:46:59;;;;;;;;;;;;;;;-6.50;78.57;99914.30;1688251;84;20448;-78
2021/12/28 04:49:25;;;;;;;;;;;;;;;-6.40;78.50;99912.70;1683157;84;20198;-77
2021/12/28 04:51:51;;;;;;;;;;;;;;;-6.42;78.30;99911.92;1680730;84;20199;-77
2021/12/28 04:54:17;;;;;;;;;;;;;;;-6.50;78.60;99913.02;1681280;84;21197;-77
2021/12/28 04:56:42;;;;;;;;;;;;;;;-6.42;78.56;99914.49;1690889;84;21081;-77
2021/12/28 04:59:08;;;;;;;;;;;;;;;-6.47;78.93;99916.40;1692258;84;20156;-77
2021/12/28 05:01:36;;;;;;;;;;;;;;;-6.51;79.10;99913.94;1683340;84;20174;-77
2021/12/28 05:04:02;;;;;;;;;;;;;;;-6.51;79.15;99918.21;1688112;84;20164;-77
2021/12/28 05:06:28;;;;;;;;;;;;;;;-6.47;79.27;99921.53;1687519;84;20238;-77
2021/12/28 05:08:53;;;;;;;;;;;;;;;-6.48;79.47;99915.99;1685886;84;21074;-77
2021/12/28 05:11:19;;;;;;;;;;;;;;;-6.47;79.55;99916.40;1694535;84;20120;-79
2021/12/28 05:13:45;;;;;;;;;;;;;;;-6.41;79.32;99916.18;1694834;84;20250;-77
2021/12/28 05:16:14;;;;;;;;;;;;;;;-6.41;79.44;99912.33;1684644;84;20190;-77
2021/12/28 05:18:38;;;;;;;;;;;;;;;-6.43;79.64;99907.67;1682552;84;20219;-76
2021/12/28 05:21:04;;;;;;;;;;;;;;;-6.44;79.75;99908.58;1680852;84;21071;-77
2021/12/28 05:23:29;;;;;;;;;;;;;;;-6.44;79.87;99908.58;1685860;84;20163;-76
2021/12/28 05:25:55;;;;;;;;;;;;;;;-6.34;79.71;99914.63;1685596;84;20206;-76
2021/12/28 05:28:21;;;;;;;;;;;;;;;-6.35;79.97;99918.53;1681522;84;20189;-77
2021/12/28 05:30:46;;;;;;;;;;;;;;;-6.26;80.00;99920.77;1681187;84;20254;-76
2021/12/28 05:33:12;;;;;;;;;;;;;;;-6.26;80.06;99913.06;1683888;84;21090;-77
2021/12/28 05:35:37;;;;;;;;;;;;;;;-6.30;80.46;99901.21;1684544;84;20130;-77
2021/12/28 05:38:03;;;;;;;;;;;;;;;-6.22;80.30;99909.92;1679979;84;20143;-76
2021/12/28 05:40:29;;;;;;;;;;;;;;;-6.18;80.40;99905.08;1684901;84;20707;-78
2021/12/28 05:42:54;;;;;;;;;;;;;;;-6.16;80.40;99910.98;1681031;84;20218;-77
2021/12/28 05:45:20;;;;;;;;;;;;;;;-6.11;80.53;99909.53;1682404;84;20328;-77
2021/12/28 05:47:45;;;;;;;;;;;;;;;-6.16;80.66;99916.95;1683701;84;20186;-77
2021/12/28 05:50:11;;;;;;;;;;;;;;;-6.11;80.62;99915.96;1684855;84;20136;-78
2021/12/28 05:52:37;;;;;;;;;;;;;;;-6.06;80.73;99911.48;1648117;84;20159;-78
2021/12/28 05:55:03;;;;;;;;;;;;;;;-6.07;80.95;99908.54;1694742;84;20195;-80
2021/12/28 05:57:30;;;;;;;;;;;;;;;-6.15;81.31;99902.39;1694525;84;21197;-80
2021/12/28 05:59:56;;;;;;;;;;;;;;;-6.02;81.23;99904.88;1681317;84;20183;-77
2021/12/28 06:02:22;;;;;;;;;;;;;;;-5.97;81.18;99903.42;1686327;84;20212;-81
2021/12/28 06:04:48;;;;;;;;;;;;;;;-5.97;81.28;99904.25;1683157;84;20532;-78
2021/12/28 06:07:13;;;;;;;;;;;;;;;-6.06;81.66;99902.48;1682303;84;20119;-78
2021/12/28 06:09:39;;;;;;;;;;;;;;;-5.93;81.64;99912.68;1682940;84;21290;-80
2021/12/28 06:12:06;;;;;;;;;;;;;;;-5.84;81.65;99917.48;1682963;84;20193;-80
2021/12/28 06:14:32;;;;;;;;;;;;;;;-5.87;81.92;99922.73;1690265;84;21037;-77
2021/12/28 06:16:58;;;;;;;;;;;;;;;-5.77;81.79;99925.33;1691227;84;20191;-76
2021/12/28 06:19:24;;;;;;;;;;;;;;;-5.68;81.68;99925.90;1676764;84;20997;-80
2021/12/28 06:21:51;;;;;;;;;;;;;;;-5.64;81.83;99923.58;1714033;82;21139;-78
2021/12/28 06:24:17;;;;;;;;;;;;;;;-5.61;81.80;99932.03;1684710;84;20191;-79
2021/12/28 06:26:42;;;;;;;;;;;;;;;-5.49;81.83;99931.99;1690010;84;20550;-79
2021/12/28 06:29:08;;;;;;;;;;;;;;;-5.46;81.69;99926.73;1696606;83;20135;-77
2021/12/28 06:31:34;;;;;;;;;;;;;;;-5.41;81.80;99918.39;1701062;82;20168;-77
2021/12/28 06:34:00;;;;;;;;;;;;;;;-5.49;82.28;99922.98;1708931;82;21115;-77
2021/12/28 06:36:27;;;;;;;;;;;;;;;-5.43;82.40;99916.31;1710318;82;20159;-77
2021/12/28 06:38:52;;;;;;;;;;;;;;;-5.49;82.75;99915.27;1713796;82;20198;-77
2021/12/28 06:41:18;;;;;;;;;;;;;;;-5.43;82.80;99908.59;1703483;82;20789;-77
2021/12/28 06:43:44;;;;;;;;;;;;;;;-5.34;82.82;99900.14;1703830;82;20142;-77
2021/12/28 06:46:09;;;;;;;;;;;;;;;-5.30;83.01;99896.52;1697274;82;21138;-77
2021/12/28 06:48:35;;;;;;;;;;;;;;;-5.27;82.94;99891.26;1710093;82;20125;-79
2021/12/28 06:51:01;;;;;;;;;;;;;;;-5.24;83.19;99894.53;1700311;82;21375;-78
2021/12/28 06:53:26;;;;;;;;;;;;;;;-5.13;83.10;99900.53;1706543;82;20360;-77
2021/12/28 06:55:53;;;;;;;;;;;;;;;-5.00;82.88;99896.17;1706122;82;20826;-77
2021/12/28 06:58:19;;;;;;;;;;;;;;;-4.95;82.81;99902.81;1707380;82;21916;-77
2021/12/28 07:00:45;;;;;;;;;;;;;;;-4.92;82.81;99905.26;1697047;83;20555;-78
2021/12/28 07:03:11;;;;;;;;;;;;;;;-4.80;82.91;99901.34;1692623;83;20193;-79
2021/12/28 07:05:36;;;;;;;;;;;;;;;-4.74;82.62;99909.24;1689799;83;20672;-78
2021/12/28 07:08:02;;;;;;;;;;;;;;;-4.66;82.54;99915.36;1704381;83;20163;-78
2021/12/28 07:10:28;;;;;;;;;;;;;;;-4.59;82.36;99919.36;1691862;83;21205;-80
2021/12/28 07:12:53;;;;;;;;;;;;;;;-4.48;82.05;99917.16;1701949;83;20265;-77
2021/12/28 07:15:20;;;;;;;;;;;;;;;-4.47;82.04;99915.40;1697542;83;20122;-78
2021/12/28 07:17:45;;;;;;;;;;;;;;;-4.39;81.72;99921.91;1692143;83;20170;-79
2021/12/28 07:20:11;;;;;;;;;;;;;;;-4.33;81.53;99916.48;1658541;83;20807;-78
2021/12/28 07:22:37;;;;;;;;;;;;;;;-4.35;81.60;99924.75;1673146;85;21133;-78
2021/12/28 07:25:03;;;;;;;;;;;;;;;-4.29;81.53;99920.22;1679250;85;20157;-78
2021/12/28 07:27:29;;;;;;;;;;;;;;;-4.25;81.46;99914.86;1656640;85;20228;-78
2021/12/28 07:29:54;;;;;;;;;;;;;;;-4.14;81.46;99913.09;1662955;85;20610;-77
2021/12/28 07:32:20;;;;;;;;;;;;;;;-4.19;81.32;99905.56;1656947;85;20164;-80
2021/12/28 07:34:45;;;;;;;;;;;;;;;-4.17;81.38;99909.36;1659865;84;21336;-78
2021/12/28 07:37:11;;;;;;;;;;;;;;;-4.14;81.48;99915.67;1684340;85;21014;-76
2021/12/28 07:39:37;;;;;;;;;;;;;;;-4.07;81.38;99917.08;1681194;85;20195;-80
2021/12/28 07:42:03;;;;;;;;;;;;;;;-4.14;81.67;99907.94;1675190;85;20129;-77
2021/12/28 07:44:28;;;;;;;;;;;;;;;-4.15;82.02;99908.83;1667108;84;20253;-77
2021/12/28 07:46:54;;;;;;;;;;;;;;;-4.18;81.93;99911.55;1665064;85;21327;-77
2021/12/28 07:49:20;;;;;;;;;;;;;;;-4.21;82.38;99901.37;1667417;85;20284;-79
2021/12/28 07:51:46;;;;;;;;;;;;;;;-4.23;82.33;99896.74;1681295;85;20198;-79
2021/12/28 07:54:11;;;;;;;;;;;;;;;-4.16;82.30;99889.95;1674663;84;20217;-77
2021/12/28 07:56:37;;;;;;;;;;;;;;;-4.30;82.78;99889.75;1658695;84;20825;-80
2021/12/28 07:59:04;;;;;;;;;;;;;;;-4.28;82.59;99885.81;1664408;84;21309;-78
2021/12/28 08:01:32;;;;;;;;;;;;;;;-4.36;82.75;99880.53;1656437;85;20180;-79
2021/12/28 08:03:57;;;;;;;;;;;;;;;-4.35;82.91;99887.37;1646797;85;20179;-77
2021/12/28 08:06:23;;;;;;;;;;;;;;;-4.31;82.70;99878.22;1674884;85;20145;-77
2021/12/28 08:08:49;;;;;;;;;;;;;;;-4.34;82.71;99886.45;1663144;85;20724;-78
2021/12/28 08:11:14;;;;;;;;;;;;;;;-4.30;82.46;99878.58;1680900;84;20932;-77
2021/12/28 08:13:40;;;;;;;;;;;;;;;-4.30;82.61;99868.27;1663416;85;20227;-78
2021/12/28 08:16:06;;;;;;;;;;;;;;;-4.32;82.66;99873.48;1670473;85;20705;-78
2021/12/28 08:18:31;;;;;;;;;;;;;;;-4.34;82.61;99865.00;1675423;83;20500;-76
2021/12/28 08:20:57;;;;;;;;;;;;;;;-4.31;82.54;99873.06;1696457;83;20137;-79
2021/12/28 08:23:23;;;;;;;;;;;;;;;-4.34;82.93;99868.41;1698169;83;21114;-77
2021/12/28 08:25:49;;;;;;;;;;;;;;;-4.31;82.88;99876.92;1721825;82;20145;-79
2021/12/28 08:28:15;;;;;;;;;;;;;;;-4.36;82.82;99881.82;1706345;82;20123;-76
2021/12/28 08:30:40;;;;;;;;;;;;;;;-4.27;82.80;99886.17;1712000;82;20547;-80
2021/12/28 08:33:08;;;;;;;;;;;;;;;-4.22;82.58;99882.50;1708454;82;20188;-77
2021/12/28 08:35:34;;;;;;;;;;;;;;;-4.15;82.49;99885.63;1707418;82;20125;-77
2021/12/28 08:38:00;;;;;;;;;;;;;;;-4.16;82.37;99888.67;1712529;82;20184;-78
2021/12/28 08:40:26;;;;;;;;;;;;;;;-4.13;82.20;99890.72;1700052;82;20555;-79
2021/12/28 08:42:51;;;;;;;;;;;;;;;-4.06;82.13;99890.37;1710658;82;20169;-78
2021/12/28 08:45:17;;;;;;;;;;;;;;;-4.03;81.91;99891.52;1716089;82;20252;-78
2021/12/28 08:47:45;;;;;;;;;;;;;;;-4.12;82.27;99890.64;1705495;82;21167;-76
2021/12/28 08:50:11;;;;;;;;;;;;;;;-4.08;82.29;99876.72;1719314;82;20137;-78
2021/12/28 08:52:36;;;;;;;;;;;;;;;-4.05;82.46;99876.58;1712372;82;20655;-77
2021/12/28 08:55:04;;;;;;;;;;;;;;;-3.98;82.37;99875.84;1723465;82;20153;-77
2021/12/28 08:57:30;;;;;;;;;;;;;;;-3.97;82.28;99869.31;1716727;82;20218;-79
2021/12/28 08:59:56;;;;;;;;;;;;;;;-3.91;82.39;99861.77;1713161;82;20922;-78
2021/12/28 09:02:21;;;;;;;;;;;;;;;-3.93;82.53;99858.86;1716403;82;20232;-78
2021/12/28 09:04:47;;;;;;;;;;;;;;;-3.89;82.41;99858.64;1708531;82;20557;-78
2021/12/28 09:07:14;;;;;;;;;;;;;;;-3.85;82.46;99863.23;1709595;82;20460;-78
2021/12/28 09:09:39;;;;;;;;;;;;;;;-3.75;82.50;99861.05;1726011;82;20226;-80
2021/12/28 09:12:06;;;;;;;;;;;;;;;-3.68;82.45;99863.27;1714932;82;21049;-78
2021/12/28 09:14:32;;;;;;;;;;;;;;;-3.64;82.19;99867.35;1701004;82;20169;-79
2021/12/28 09:16:58;;;;;;;;;;;;;;;-3.57;82.11;99867.06;1707942;82;20268;-78
2021/12/28 09:19:24;;;;;;;;;;;;;;;-3.55;82.39;99860.10;1710394;82;20935;-78
2021/12/28 09:21:49;;;;;;;;;;;;;;;-3.51;82.00;99856.45;1716341;82;20404;-76
2021/12/28 09:24:15;;;;;;;;;;;;;;;-3.48;82.19;99849.41;1718883;82;21090;-76
2021/12/28 09:26:41;;;;;;;;;;;;;;;-3.48;82.23;99844.25;1716870;82;21048;-77
2021/12/28 09:29:06;;;;;;;;;;;;;;;-3.46;82.44;99835.97;1714799;82;20328;-79
2021/12/28 09:31:33;;;;;;;;;;;;;;;-3.33;82.19;99827.62;1720816;82;20120;-76
2021/12/28 09:33:59;;;;;;;;;;;;;;;-3.36;82.34;99818.27;1716137;82;20213;-79
2021/12/28 09:36:25;;;;;;;;;;;;;;;-3.30;82.35;99825.71;1726211;82;21187;-77
2021/12/28 09:38:53;;;;;;;;;;;;;;;-3.35;82.77;99816.55;1723500;82;20265;-78
2021/12/28 09:41:24;;;;;;;;;;;;;;;-3.26;82.82;99822.08;1700395;82;20826;-77
2021/12/28 09:43:52;;;;;;;;;;;;;;;-3.35;83.24;99812.20;1720774;82;20657;-79
2021/12/28 09:46:19;;;;;;;;;;;;;;;-3.32;83.63;99804.31;1724795;82;20506;-78
2021/12/28 09:48:45;;;;;;;;;;;;;;;-3.31;83.78;99804.70;1696425;82;21198;-77
2021/12/28 09:51:13;;;;;;;;;;;;;;;-3.31;83.82;99793.08;1717912;81;20144;-77
2021/12/28 09:53:41;;;;;;;;;;;;;;;-3.20;83.69;99796.84;1720672;82;20218;-78
2021/12/28 09:56:09;;;;;;;;;;;;;;;-3.19;83.78;99789.02;1716195;82;20168;-78
2021/12/28 09:58:36;;;;;;;;;;;;;;;-3.12;83.91;99795.56;1718315;82;20163;-76
2021/12/28 10:01:03;;;;;;;;;;;;;;;-3.14;84.15;99792.66;1723464;82;21882;-79
2021/12/28 10:03:29;;;;;;;;;;;;;;;-3.08;83.91;99795.80;1728442;81;20102;-81
2021/12/28 10:05:55;;;;;;;;;;;;;;;-3.04;83.90;99803.39;1715163;82;20280;-77
2021/12/28 10:08:25;;;;;;;;;;;;;;;-3.04;84.00;99799.05;1717222;82;20163;-76
2021/12/28 10:10:58;;;;;;;;;;;;;;;-2.90;83.72;99795.76;1694841;82;20310;-77
2021/12/28 10:13:29;;;;;;;;;;;;;;;-2.90;83.72;99790.13;1724757;81;21325;-76
2021/12/28 10:15:53;;;;;;;;;;;;;;;-2.83;83.68;99791.09;1719795;81;20156;-77
2021/12/28 10:18:20;;;;;;;;;;;;;;;-2.75;83.30;99803.15;1708825;82;20125;-78
2021/12/28 10:20:51;;;;;;;;;;;;;;;-2.64;83.03;99808.62;1720110;81;20216;-77
2021/12/28 10:23:20;;;;;;;;;;;;;;;-2.53;82.74;99804.17;1690301;83;20168;-76
2021/12/28 10:25:50;;;;;;;;;;;;;;;-2.60;82.68;99803.64;1700760;83;21085;-77
2021/12/28 10:28:27;;;;;;;;;;;;;;;-2.57;82.62;99804.77;1694117;83;20975;-77
2021/12/28 10:30:58;;;;;;;;;;;;;;;-2.51;82.59;99795.05;1694535;83;32634;-77
2021/12/28 10:33:26;;;;;;;;;;;;;;;-2.53;82.62;99782.20;1691351;83;20202;-76
2021/12/28 10:35:54;;;;;;;;;;;;;;;-2.62;82.79;99784.81;1686863;83;20244;-79
2021/12/28 10:38:23;;;;;;;;;;;;;;;-2.53;82.71;99771.86;1692999;83;21239;-76
2021/12/28 10:40:55;;;;;;;;;;;;;;;-2.55;82.87;99761.60;1710307;82;20197;-80
2021/12/28 10:43:22;;;;;;;;;;;;;;;-2.45;82.60;99749.01;1681936;83;20165;-77
2021/12/28 10:45:59;;;;;;;;;;;;;;;-2.57;82.84;99763.41;1708985;83;20323;-76
2021/12/28 10:48:23;;;;;;;;;;;;;;;-2.53;83.04;99770.09;1710668;83;20236;-78
2021/12/28 10:51:08;;;;;;;;;;;;;;;-2.42;82.91;99766.11;1699907;83;21884;-78
2021/12/28 10:56:23;;;;;;;;;;;;;;;-2.37;82.61;99774.45;1705921;83;20177;-77
2021/12/28 10:58:49;;;;;;;;;;;;;;;-2.37;82.32;99767.98;1715319;83;20185;-80
2021/12/28 11:01:19;;;;;;;;;;;;;;;-2.29;82.25;99754.17;1704908;82;20214;-80
2021/12/28 11:03:48;;;;;;;;;;;;;;;-2.31;82.12;99756.02;1706895;83;20549;-81
2021/12/28 11:06:17;;;;;;;;;;;;;;;-2.29;82.06;99750.29;1676672;83;20152;-79
2021/12/28 11:08:47;;;;;;;;;;;;;;;-2.37;82.45;99758.94;1707223;83;20107;-81
2021/12/28 11:11:17;;;;;;;;;;;;;;;-2.28;82.59;99749.38;1708881;82;20131;-78
2021/12/28 11:13:44;;;;;;;;;;;;;;;-2.23;82.36;99753.00;1706856;82;20200;-78
2021/12/28 11:16:14;;;;;;;;;;;;;;;-2.13;82.10;99771.43;1706844;83;21186;-78
2021/12/28 11:18:45;;;;;;;;;;;;;;;-2.09;81.45;99756.13;1705756;82;20747;-77
2021/12/28 11:21:27;;;;;;;;;;;;;;;-2.04;81.73;99750.23;1705969;83;20098;-78
2021/12/28 11:23:55;;;;;;;;;;;;;;;-1.88;81.48;99743.72;1708592;83;20137;-78
2021/12/28 11:26:25;;;;;;;;;;;;;;;-1.86;81.12;99739.31;1681576;84;20212;-78
2021/12/28 11:28:54;;;;;;;;;;;;;;;-1.92;81.14;99731.42;1674778;85;20801;-77
2021/12/28 11:31:29;;;;;;;;;;;;;;;-1.99;81.03;99732.24;1699410;82;20118;-78
2021/12/28 11:33:59;;;;;;;;;;;;;;;-1.86;80.90;99728.48;1710574;82;20531;-78
2021/12/28 11:36:35;;;;;;;;;;;;;;;-1.87;80.81;99724.22;1701632;82;20177;-79
2021/12/28 11:39:02;;;;;;;;;;;;;;;-1.91;81.01;99702.49;1700142;82;20574;-82
2021/12/28 11:41:30;;;;;;;;;;;;;;;-1.85;81.10;99706.88;1723546;82;21990;-81
2021/12/28 11:44:00;;;;;;;;;;;;;;;-1.85;80.96;99699.11;1704938;82;20133;-79
2021/12/28 11:46:27;;;;;;;;;;;;;;;-1.78;80.85;99698.77;1709079;82;20291;-80
2021/12/28 11:48:54;;;;;;;;;;;;;;;-1.74;80.73;99700.23;1707040;82;20195;-80
2021/12/28 11:51:22;;;;;;;;;;;;;;;-1.77;80.64;99701.70;1688959;82;20209;-78
2021/12/28 11:53:48;;;;;;;;;;;;;;;-1.77;80.92;99703.00;1706129;82;21202;-77
2021/12/28 11:56:18;;;;;;;;;;;;;;;-1.81;80.80;99686.34;1679017;82;20188;-80
2021/12/28 11:59:00;;;;;;;;;;;;;;;-1.76;80.51;99673.14;1695492;82;20517;-77
2021/12/28 12:01:41;;;;;;;;;;;;;;;-1.70;80.57;99675.84;1686394;83;20240;-79
2021/12/28 12:04:29;;;;;;;;;;;;;;;-1.67;80.51;99664.84;1694952;83;20227;-79
2021/12/28 12:07:05;;;;;;;;;;;;;;;-1.61;80.48;99670.12;1684602;83;21171;-81
2021/12/28 12:09:37;;;;;;;;;;;;;;;-1.66;80.45;99664.39;1654816;83;20684;-78
2021/12/28 12:12:13;;;;;;;;;;;;;;;-1.63;80.37;99649.98;1694359;83;20150;-83
2021/12/28 12:15:00;;;;;;;;;;;;;;;-1.61;80.15;99653.30;1684603;83;20156;-78
2021/12/28 12:17:37;;;;;;;;;;;;;;;-1.66;80.16;99652.75;1695784;82;20214;-78
2021/12/28 12:20:06;;;;;;;;;;;;;;;-1.58;80.15;99643.23;1689522;83;20315;-84
2021/12/28 12:22:45;;;;;;;;;;;;;;;-1.62;79.89;99637.38;1689600;83;20262;-80
2021/12/28 12:25:15;;;;;;;;;;;;;;;-1.67;80.12;99629.06;1687572;83;20185;-79
2021/12/28 12:27:55;;;;;;;;;;;;;;;-1.67;80.35;99618.72;1692446;83;20229;-78
2021/12/28 12:30:25;;;;;;;;;;;;;;;-1.57;80.08;99624.16;1695084;83;20245;-80
2021/12/28 12:33:10;;;;;;;;;;;;;;;-1.56;80.21;99617.60;1693329;83;21174;-78
2021/12/28 12:35:50;;;;;;;;;;;;;;;-1.56;80.06;99620.19;1692099;83;20511;-79
2021/12/28 12:38:19;;;;;;;;;;;;;;;-1.64;80.16;99623.23;1691389;83;20549;-81
2021/12/28 12:41:13;;;;;;;;;;;;;;;-1.73;80.12;99621.20;1689812;83;20218;-79
2021/12/28 12:43:44;;;;;;;;;;;;;;;-1.61;79.92;99618.34;1696267;83;20203;-80
2021/12/28 12:46:23;;;;;;;;;;;;;;;-1.61;79.70;99608.00;1693032;83;20968;-79
2021/12/28 12:48:56;;;;;;;;;;;;;;;-1.63;79.67;99612.44;1688187;83;20406;-79
2021/12/28 12:51:28;;;;;;;;;;;;;;;-1.61;79.75;99620.94;1690062;83;20226;-83